• Join FlightAware (Why Join?)
  • Login
  • US Flag 
05:41AM EDT


 

Airport Tracker/Info


-or-


 

Live Flight TrackerFlight Track Log ✈ N707JC ✈ 27-Jul-2013 ✈ KBED - KBDL

Flight Track Log - Related Links

Times and Time Zones

All times are in EDT time to prevent confusion due to time zone crossing. See the N707JC flight status page for this flight to view local times or setup timezone preferences in your user account.

Time Position Orientation Groundspeed Altitude Reporting Facility
EDT Latitude Longitude Course Direction KTS MPH feet Rate Location/Type
01:20PM 42.4500 -71.3667 251° West 213 245 2,100  Level KA90
01:21PM 42.4167 -71.4167 228° Southwest 205 236 3,100 1,860 Climbing KA90
01:22PM 42.3667 -71.4667 216° Southwest 254 292 5,700 2,580 Climbing KA90
01:22PM 42.3258 -71.5078 217° Southwest 269 310 7,400 2,280 Climbing Boston Center
01:24PM 42.2514 -71.5817 216° Southwest 277 319 10,000 1,200 Climbing Boston Center
01:25PM 42.1933 -71.6556 223° Southwest 334 384 10,000  Level Boston Center
01:26PM 42.1692 -71.7819 256° West 329 379 10,000 -120 Level Boston Center
01:27PM 42.1572 -71.8939 262° West 279 321 9,800 -840 Descending Boston Center
01:28PM 42.1514 -71.9864 265° West 272 313 8,500 -1,680 Descending Boston Center
01:29PM 42.1394 -72.0872 261° West 271 312 6,500 -1,740 Descending Boston Center
01:30PM 42.1314 -72.1881 264° West 270 311 5,000 -840 Descending Boston Center
01:31PM 42.1211 -72.2833 262° West 261 300 4,900 -900 Descending Boston Center
01:32PM 42.1086 -72.3925 261° West 256 295 3,100 -900 Descending Boston Center
01:33PM 42.0981 -72.4708 260° West 187 215 3,000 -60 Descending Boston Center
01:34PM 42.0669 -72.5211 230° Southwest 177 204 3,000 -300 Level Boston Center
01:35PM 42.0294 -72.5686 223° Southwest 189 217 2,500 -720 Descending Boston Center
01:36PM 42.0000 -72.6078 225° Southwest 125 144 1,600 -780 Descending Boston Center
01:37PM 41.9750 -72.6411 225° Southwest 114 131 1,000 -660 Descending Boston Center
01:38PM 41.9500 -72.6717 222° Southwest 123 142 300 -720 Descending Boston Center
01:40PM 41.9333 -72.6833 257° West  Level FlightAware Approximate
01:47PM 41.9392 -72.6834 257° West  Level Estimated
01:48PM 41.9333 -72.6833 257° West  Level FlightAware Approximate